Latest Coastal Weather Observations for Stenhouse Bay

IDS60701

Issued at 11:01 am CST Sunday 31 July 2016 (issued every 10 minutes, with the page automatically refreshed every 10 minutes)

About coastal observations | Map of coastal stations | Coastal observations for SA | Marine services | Other Formats
Station Details ID: 022049 Name: STENHOUSE BAY Lat: -35.28 Lon: 136.94 Height: 42.0 m
Data from the previous 72 hours. | See also: Recent months at Stenhouse Bay
Date/Time
CST
Temp
°C
Wind Pressure Rain since
9am
mm
Weather Cloud Vis
km
Sea
Height
m
Swell
Dir  Spd
kts
Gust
kts
hPa Trend Height
m
Period
s
Dir
31/11:00am 14.6 N 10 13 1014.8 - 0.0 - - - - - - -
31/10:30am 14.7 N 8 11 1014.9 - 0.0 - - - - - - -
31/10:00am 14.0 NNE 6 9 1015.1 - 0.0 - - - - - - -
31/09:30am 12.8 N 5 7 1015.4 - 0.0 - - - - - - -
31/09:00am 10.9 N 6 8 1015.4 - 1.2 - - - - - - -
31/08:30am 9.7 NNW 5 8 1015.6 - 1.2 - - - - - - -
31/08:00am 9.1 N 5 7 1015.1 - 1.2 - - - - - - -
31/07:30am 8.9 N 4 7 1015.3 - 1.2 - - - - - - -
31/07:00am 9.0 NNW 3 5 1015.1 - 1.2 - - - - - - -
31/06:30am 9.9 NW 3 4 1015.0 - 1.2 - - - - - - -
31/06:00am 10.0 NW 2 2 1015.0 - 1.2 Recent precip. - - - - - -
31/05:30am 10.4 W 3 4 1015.0 - 1.2 - - - - - - -
31/05:00am 10.6 W 4 4 1014.9 - 1.0 - - - - - - -
31/04:30am 10.7 WNW 2 3 1015.0 - 1.0 - - - - - - -
31/04:00am 10.2 W 3 3 1015.0 - 1.0 - - - - - - -
31/03:30am 10.6 W 4 5 1015.1 - 1.0 - - - - - - -
31/03:00am 10.6 W 5 6 1015.2 - 1.0 - - - - - - -
31/02:30am 10.7 W 5 6 1015.2 - 1.0 - - - - - - -
31/02:00am 11.0 WSW 6 7 1015.3 - 1.0 - - - - - - -
31/01:30am 11.2 WSW 7 9 1015.2 - 1.0 - - - - - - -
31/01:00am 11.7 WSW 7 8 1015.3 - 1.0 - - - - - - -
31/12:30am 12.1 WSW 7 10 1015.6 - 1.0 - - - - - - -
31/12:00am 12.4 WSW 7 9 1015.8 - 1.0 - - - - - - -
 
Date/Time
CST
Temp
°C
Wind Pressure Rain since
9am
mm
Weather Cloud Vis
km
Sea
Height
m
Swell
Dir  Spd
kts
Gust
kts
hPa Trend Height
m
Period
s
Dir
30/11:30pm 12.5 W 4 6 1015.9 - 1.0 - - - - - - -
30/11:00pm 13.5 WSW 9 11 1015.6 - 1.0 - - - - - - -
30/10:30pm 13.5 WSW 7 11 1015.5 - 1.0 - - - - - - -
30/10:00pm 13.7 W 5 7 1015.3 - 1.0 - - - - - - -
30/09:30pm 14.0 WNW 8 11 1015.1 - 1.0 - - - - - - -
30/09:00pm 13.8 WNW 9 14 1014.8 - 1.0 - - - - - - -
30/08:30pm 13.3 NW 7 10 1014.6 - 1.0 - - - - - - -
30/08:00pm 13.0 NW 7 9 1014.3 - 1.0 - - - - - - -
30/07:30pm 13.0 NW 8 9 1013.9 - 1.0 - - - - - - -
30/07:00pm 13.5 NW 9 12 1013.3 - 1.0 - - - - - - -
30/06:30pm 13.7 NW 11 15 1013.0 - 1.0 - - - - - - -
30/06:00pm 13.5 NNW 10 16 1012.8 - 1.0 - - - - - - -
30/05:30pm 13.4 NW 10 13 1012.6 - 1.0 - - - - - - -
30/05:00pm 13.1 NNW 11 14 1012.3 - 1.0 - - - - - - -
30/04:30pm 13.0 NNW 12 15 1012.2 - 1.0 - - - - - - -
30/04:00pm 13.2 NNW 10 14 1012.3 - 1.0 - - - - - - -
30/03:30pm 13.3 NNW 9 12 1012.1 - 1.0 - - - - - - -
30/03:00pm 13.4 NNW 11 14 1011.8 - 0.4 Rain - - - - - -
30/02:30pm 14.4 NNW 12 16 1012.1 - 0.0 - - - - - - -
30/02:00pm 15.1 NNW 15 20 1012.0 - 0.0 - - - - - - -
30/01:30pm 15.0 NNW 18 25 1011.9 - 0.0 - - - - - - -
30/01:00pm 15.4 NNW 18 25 1011.7 - 0.0 - - - - - - -
30/12:30pm 15.3 N 19 26 1012.0 - 0.0 - - - - - - -
30/12:00pm 15.4 N 19 28 1012.7 - 0.0 - - - - - - -
30/11:30am 15.0 N 17 25 1013.7 - 0.0 - - - - - - -
30/11:00am 15.2 NNW 17 24 1014.1 - 0.0 - - - - - - -
30/10:30am 15.7 N 18 24 1014.1 - 0.0 - - - - - - -
30/10:00am 14.6 N 18 25 1014.0 - 0.0 - - - - - - -
30/09:30am 14.1 N 14 20 1014.3 - 0.0 - - - - - - -
30/09:00am 13.2 N 13 18 1015.0 - 0.0 - - - - - - -
30/08:30am 12.4 N 13 18 1015.0 - 0.0 - - - - - - -
30/08:00am 11.7 N 12 15 1015.1 - 0.0 - - - - - - -
30/07:30am 11.4 N 13 16 1015.5 - 0.0 - - - - - - -
30/07:00am 10.9 N 13 15 1015.5 - 0.0 - - - - - - -
30/06:30am 10.7 N 12 16 1015.6 - 0.0 - - - - - - -
30/06:00am 10.5 N 12 15 1015.8 - 0.0 - - - - - - -
30/05:30am 10.7 N 11 13 1016.2 - 0.0 - - - - - - -
30/05:00am 11.1 N 11 15 1016.3 - 0.0 - - - - - - -
30/04:30am 11.1 N 12 16 1016.5 - 0.0 - - - - - - -
30/04:00am 10.8 N 10 12 1017.1 - 0.0 - - - - - - -
30/03:30am 10.9 N 9 13 1017.1 - 0.0 - - - - - - -
30/03:00am 10.6 N 9 11 1017.4 - 0.0 - - - - - - -
30/02:30am 10.2 N 6 7 1018.0 - 0.0 - - - - - - -
30/02:00am 10.2 N 7 8 1018.5 - 0.0 - - - - - - -
30/01:30am 10.0 N 7 7 1019.0 - 0.0 - - - - - - -
30/01:00am 9.9 N 7 8 1019.3 - 0.0 - - - - - - -
30/12:30am 9.7 N 6 8 1019.7 - 0.0 - - - - - - -
30/12:00am 9.9 N 7 9 1020.1 - 0.0 - - - - - - -
 
Date/Time
CST
Temp
°C
Wind Pressure Rain since
9am
mm
Weather Cloud Vis
km
Sea
Height
m
Swell
Dir  Spd
kts
Gust
kts
hPa Trend Height
m
Period
s
Dir
29/11:30pm 9.8 N 6 7 1020.4 - 0.0 - - - - - - -
29/11:00pm 10.1 N 5 7 1020.8 - 0.0 - - - - - - -
29/10:30pm 10.4 N 6 7 1021.3 - 0.0 - - - - - - -
29/10:00pm 10.5 N 7 8 1021.4 - 0.0 - - - - - - -
29/09:30pm 10.8 N 5 8 1021.4 - 0.0 - - - - - - -
29/09:00pm 10.7 N 5 7 1021.3 - 0.0 - - - - - - -
29/08:30pm 10.7 N 4 6 1021.5 - 0.0 - - - - - - -
29/08:00pm 11.0 N 5 7 1021.4 - 0.0 - - - - - - -
29/07:30pm 11.1 N 5 6 1021.4 - 0.0 - - - - - - -
29/07:00pm 11.1 N 6 7 1021.5 - 0.0 - - - - - - -
29/06:30pm 11.5 NNW 5 6 1021.8 - 0.0 - - - - - - -
29/06:00pm 12.1 NNW 5 7 1021.5 - 0.0 - - - - - - -
29/05:30pm 12.9 NNW 5 8 1021.2 - 0.0 - - - - - - -
29/05:00pm 13.9 NNW 3 4 1021.4 - 0.0 - - - - - - -
29/04:30pm 14.5 N 3 4 1021.2 - 0.0 - - - - - - -
29/04:00pm 15.3 N 3 5 1021.2 - 0.0 - - - - - - -
29/03:30pm 15.3 NW 5 8 1021.5 - 0.0 - - - - - - -
29/03:00pm 16.1 NW 6 9 1021.7 - 0.0 - - - - - - -
29/02:30pm 16.0 NNW 7 11 1021.9 - 0.0 - - - - - - -
29/02:00pm 16.3 NNW 8 11 1022.3 - 0.0 - - - - - - -
29/01:30pm 15.9 NNW 8 12 1022.7 - 0.0 - - - - - - -
29/01:00pm 15.7 NNW 9 13 1022.9 - 0.0 - - - - - - -
29/12:30pm 15.6 NNW 9 12 1023.2 - 0.0 - - - - - - -
29/12:00pm 15.0 NNW 9 12 1023.9 - 0.0 - - - - - - -
29/11:30am 13.3 NW 8 11 1024.6 - 0.0 - - - - - - -
29/11:00am 13.4 NW 5 10 1024.6 - 0.0 - - - - - - -
29/10:30am 13.3 N 6 8 1024.8 - 0.0 - - - - - - -
29/10:00am 12.8 NNW 7 10 1024.8 - 0.0 - - - - - - -
29/09:30am 12.5 NNW 10 12 1024.8 - 0.0 - - - - - - -
29/09:00am 12.4 NNW 10 13 1024.6 - 0.0 - - - - - - -
29/08:30am 11.8 NNW 8 11 1024.7 - 0.0 - - - - - - -
29/08:00am 11.5 NW 6 9 1024.8 - 0.0 - - - - - - -
29/07:30am 11.4 NNW 7 9 1024.3 - 0.0 - - - - - - -
29/07:00am 11.2 NNW 7 10 1024.4 - 0.0 - - - - - - -
29/06:30am 11.0 NNW 7 11 1023.9 - 0.0 - - - - - - -
29/06:00am 11.1 NNW 7 9 1023.7 - 0.0 - - - - - - -
29/05:30am 11.3 NNW 8 11 1023.3 - 0.0 - - - - - - -
29/05:00am 11.6 NW 8 12 1023.7 - 0.0 - - - - - - -
29/04:30am 11.5 NNW 10 14 1023.2 - 0.0 - - - - - - -
29/04:00am 11.7 NNW 7 10 1023.7 - 0.0 - - - - - - -
29/03:30am 11.9 NW 9 12 1024.1 - 0.0 - - - - - - -
29/03:00am 11.9 NNW 7 10 1024.0 - 0.0 - - - - - - -
29/02:30am 11.9 NW 7 10 1024.4 - 0.0 - - - - - - -
29/02:00am 12.1 NW 9 12 1024.6 - 0.0 - - - - - - -
29/01:30am 12.2 NW 10 13 1024.9 - 0.0 - - - - - - -
29/01:00am 12.2 NW 9 14 1024.8 - 0.0 - - - - - - -
29/12:30am 12.3 NW 9 14 1025.1 - 0.0 - - - - - - -
29/12:00am 12.4 NW 9 12 1025.2 - 0.0 - - - - - - -
 
Date/Time
CST
Temp
°C
Wind Pressure Rain since
9am
mm
Weather Cloud Vis
km
Sea
Height
m
Swell
Dir  Spd
kts
Gust
kts
hPa Trend Height
m
Period
s
Dir
28/11:30pm 12.4 NW 9 13 1025.2 - 0.0 - - - - - - -
28/11:00pm 12.4 NW 8 11 1025.6 - 0.0 - - - - - - -
28/10:30pm 12.4 WNW 7 11 1025.9 - 0.0 - - - - - - -
28/10:00pm 12.4 WNW 9 13 1026.2 - 0.0 - - - - - - -
28/09:30pm 12.2 WNW 8 12 1025.9 - 0.0 - - - - - - -
28/09:00pm 12.2 NW 9 12 1025.9 - 0.0 - - - - - - -
28/08:30pm 12.4 NW 8 11 1026.0 - 0.0 - - - - - - -
28/08:00pm 12.5 NW 7 9 1026.2 - 0.0 - - - - - - -
28/07:30pm 12.6 WNW 7 10 1026.2 - 0.0 - - - - - - -
28/07:00pm 12.7 WNW 8 14 1026.4 - 0.0 - - - - - - -
28/06:30pm 12.8 NW 8 11 1026.3 - 0.0 - - - - - - -
28/06:00pm 12.9 WNW 7 11 1026.3 - 0.0 - - - - - - -
28/05:30pm 12.8 NW 8 11 1026.3 - 0.0 - - - - - - -
28/05:00pm 12.8 NW 9 14 1026.2 - 0.0 - - - - - - -
28/04:30pm 13.2 NW 11 14 1026.3 - 0.0 - - - - - - -
28/04:00pm 13.1 NW 9 14 1026.3 - 0.0 - - - - - - -
28/03:30pm 13.2 NW 11 16 1026.4 - 0.0 - - - - - - -
28/03:00pm 12.9 WNW 10 16 1026.4 - 0.0 - - - - - - -
28/02:30pm 13.5 NW 10 16 1026.3 - 0.0 - - - - - - -
28/02:00pm 13.3 NW 13 20 1026.6 - 0.0 - - - - - - -
28/01:30pm 13.4 NW 13 19 1026.9 - 0.0 - - - - - - -
28/01:00pm 13.7 NW 10 15 1027.2 - 0.0 - - - - - - -
28/12:30pm 13.9 WNW 13 18 1027.3 - 0.0 - - - - - - -
28/12:00pm 14.0 WNW 11 17 1027.6 - 0.0 - - - - - - -
28/11:30am 14.1 NW 11 15 1027.8 - 0.0 - - - - - - -

Other Formats:

Comma delimited format used in spreadsheet applications
http://www.bom.gov.au/fwo/IDS60701/IDS60701.95806.axf

JavaScript Object Notation format (JSON) in row-major order
http://www.bom.gov.au/fwo/IDS60701/IDS60701.95806.json